Boardwalk — ZGAQ7 — position and weather

sailwx.info

Track history (hours):
 
Tides and Currents Weather Stations Pressure Air Temp Water Temp Dewpoint Dewpoint Depression Visibility Wind Speed Wind Dir Waves Ship Positions

Boardwalk

Last reported at 2017-Aug-20 02:28 UTC. Time now 2017-Aug-20 23:10 UTC.
Position N 33°56' W 118°28'.

Length 50 m; draft 2.7 m.

Type: Pleasure craft. MMSI: 319031900.

Date/timePositionNaut miles runAvg speedWind from/ knotsBaromVisibWave heightAir tempDewpointWater temp
2017-Aug-20 02:28N 33°56' W 118°28'1 1.1
2017-Aug-20 01:41N 33°56' W 118°28'1 5.6
2017-Aug-20 01:30N 33°55' W 118°28'4 6.3
2017-Aug-20 00:57N 33°52' W 118°29'6 8.1
2017-Aug-20 00:12N 33°46' W 118°30'211.9
2017-Aug-20 00:00N 33°44' W 118°30'816.5
2017-Aug-19 23:30N 33°36' W 118°27'1018.8
2017-Aug-19 23:00N 33°29' W 118°19'1019.1
2017-Aug-19 22:29N 33°22' W 118°11'918.7
2017-Aug-19 22:00N 33°16' W 118°03'918.7
2017-Aug-19 21:30N 33°09' W 117°55'918.7
2017-Aug-19 21:01N 33°03' W 117°47'918.5
2017-Aug-19 20:31N 32°55' W 117°41'918.8
2017-Aug-19 20:01N 32°49' W 117°33'919.0
2017-Aug-19 19:30N 32°42' W 117°25'918.0
2017-Aug-19 19:00N 32°39' W 117°15'510.4
2017-Aug-19 18:30N 32°43' W 117°12'  
Track history (hours):
 
Tides and Currents Weather Stations Pressure Air Temp Water Temp Dewpoint Dewpoint Depression Visibility Wind Speed Wind Dir Waves Ship Positions

Boardwalk

Last reported at 2017-Aug-20 02:28 UTC. Time now 2017-Aug-20 23:10 UTC.
Position N 33°56' W 118°28'.

Length 50 m; draft 2.7 m.

Type: Pleasure craft. MMSI: 319031900.

Date/timePositionNaut miles runAvg speedWind from/ knotsBaromVisibWave heightAir tempDewpointWater temp
2017-Aug-20 02:28N 33°56' W 118°28'1 1.1
2017-Aug-20 01:41N 33°56' W 118°28'1 5.6
2017-Aug-20 01:30N 33°55' W 118°28'4 6.3
2017-Aug-20 00:57N 33°52' W 118°29'6 8.1
2017-Aug-20 00:12N 33°46' W 118°30'211.9
2017-Aug-20 00:00N 33°44' W 118°30'816.5
2017-Aug-19 23:30N 33°36' W 118°27'1018.8
2017-Aug-19 23:00N 33°29' W 118°19'1019.1
2017-Aug-19 22:29N 33°22' W 118°11'918.7
2017-Aug-19 22:00N 33°16' W 118°03'918.7
2017-Aug-19 21:30N 33°09' W 117°55'918.7
2017-Aug-19 21:01N 33°03' W 117°47'918.5
2017-Aug-19 20:31N 32°55' W 117°41'918.8
2017-Aug-19 20:01N 32°49' W 117°33'919.0
2017-Aug-19 19:30N 32°42' W 117°25'918.0
2017-Aug-19 19:00N 32°39' W 117°15'510.4
2017-Aug-19 18:30N 32°43' W 117°12'  

Dump ship's entire track history